createdAt,value
2023-01-05T00:01:33.708Z,11.54
2023-01-05T00:04:01.600Z,11.58
2023-01-05T00:06:29.627Z,11.59
2023-01-05T00:08:57.547Z,11.65
2023-01-05T00:11:46.144Z,11.55
2023-01-05T00:14:32.872Z,11.55
2023-01-05T00:17:18.142Z,11.58
2023-01-05T00:20:03.144Z,11.63
2023-01-05T00:22:34.766Z,11.57
2023-01-05T00:25:11.517Z,11.58
2023-01-05T00:27:43.703Z,11.60
2023-01-05T00:30:13.282Z,11.62
2023-01-05T00:32:42.893Z,11.50
2023-01-05T00:35:11.744Z,11.57
2023-01-05T00:37:40.086Z,11.60
2023-01-05T00:40:10.433Z,11.68
2023-01-05T00:42:38.645Z,11.59
2023-01-05T00:45:10.418Z,11.67
2023-01-05T00:47:38.333Z,11.74
2023-01-05T00:50:07.603Z,11.71
2023-01-05T00:52:35.424Z,11.69
2023-01-05T00:55:03.397Z,11.70
2023-01-05T00:57:31.275Z,11.58
2023-01-05T00:59:59.099Z,11.66
2023-01-05T01:02:28.613Z,11.66
2023-01-05T01:04:56.703Z,11.56
2023-01-05T01:07:25.112Z,11.68
2023-01-05T01:09:53.180Z,11.70
2023-01-05T01:12:21.046Z,11.80
2023-01-05T01:14:49.877Z,11.65
2023-01-05T01:17:18.236Z,11.59
2023-01-05T01:19:47.487Z,11.53
2023-01-05T01:22:15.666Z,11.57
2023-01-05T01:24:43.810Z,11.56
2023-01-05T01:27:11.713Z,11.61
2023-01-05T01:29:39.612Z,11.49
2023-01-05T01:32:08.396Z,11.52
2023-01-05T01:34:36.653Z,11.55
2023-01-05T01:37:05.914Z,11.55
2023-01-05T01:39:34.300Z,11.59
2023-01-05T01:42:02.109Z,11.59
2023-01-05T01:44:55.531Z,11.58
2023-01-05T01:47:33.651Z,11.61
2023-01-05T01:50:04.973Z,11.55
2023-01-05T01:52:35.392Z,11.54
2023-01-05T01:55:07.084Z,11.50
2023-01-05T01:57:36.280Z,11.46
2023-01-05T02:00:07.313Z,11.45
2023-01-05T02:02:35.499Z,11.40
2023-01-05T02:05:08.216Z,11.50
2023-01-05T02:07:41.461Z,11.49
2023-01-05T02:10:10.293Z,11.45
2023-01-05T02:12:48.827Z,11.44
2023-01-05T02:15:25.592Z,11.29
2023-01-05T02:18:10.140Z,11.42
2023-01-05T02:20:50.179Z,11.42
2023-01-05T02:23:45.656Z,11.45
2023-01-05T02:27:01.320Z,11.48
2023-01-05T02:30:05.652Z,11.36
2023-01-05T02:32:39.597Z,11.34
2023-01-05T02:35:14.708Z,11.27
2023-01-05T02:37:47.198Z,11.15
2023-01-05T02:40:20.003Z,11.21
2023-01-05T02:42:51.788Z,11.10
2023-01-05T02:45:19.610Z,11.09
2023-01-05T02:47:49.755Z,11.07
2023-01-05T02:50:22.569Z,11.19
2023-01-05T02:53:02.233Z,11.06
2023-01-05T02:55:34.297Z,11.01
2023-01-05T02:58:06.686Z,11.08
2023-01-05T03:00:39.473Z,11.15
2023-01-05T03:03:13.707Z,11.15
2023-01-05T03:05:47.361Z,11.11
2023-01-05T03:08:25.095Z,11.15
2023-01-05T03:11:20.835Z,11.04
2023-01-05T03:13:52.736Z,11.01
2023-01-05T03:16:26.532Z,10.99
2023-01-05T03:19:16.114Z,10.95
2023-01-05T03:22:02.585Z,10.92
2023-01-05T03:24:48.635Z,11.03
2023-01-05T03:27:34.728Z,11.03
2023-01-05T03:30:19.996Z,10.92
2023-01-05T03:33:09.973Z,10.99
2023-01-05T03:35:45.212Z,10.97
2023-01-05T03:38:19.763Z,10.80
2023-01-05T03:40:47.985Z,10.70
2023-01-05T03:43:16.338Z,10.73
2023-01-05T03:45:47.002Z,10.73
2023-01-05T03:48:14.844Z,10.67
2023-01-05T03:50:44.098Z,10.70
2023-01-05T03:53:11.941Z,10.62
2023-01-05T03:55:39.815Z,10.66
2023-01-05T03:58:07.636Z,10.50
2023-01-05T04:00:35.614Z,10.55
2023-01-05T04:03:03.806Z,10.55
2023-01-05T04:05:31.802Z,10.56
2023-01-05T04:08:01.231Z,10.62
2023-01-05T04:10:29.101Z,10.55
2023-01-05T04:12:57.320Z,10.53
2023-01-05T04:15:25.447Z,10.46
2023-01-05T04:17:53.375Z,10.51
2023-01-05T04:20:21.351Z,10.40
2023-01-05T04:22:49.300Z,10.31
2023-01-05T04:25:18.593Z,10.16
2023-01-05T04:27:46.425Z,10.22
2023-01-05T04:30:14.537Z,10.13
2023-01-05T04:32:42.375Z,10.05
2023-01-05T04:35:11.443Z,10.11
2023-01-05T04:37:39.984Z,10.09
2023-01-05T04:40:08.786Z,10.07
2023-01-05T04:42:38.025Z,9.97
2023-01-05T04:45:06.758Z,9.95
2023-01-05T04:47:34.657Z,9.94
2023-01-05T04:50:02.482Z,9.96
2023-01-05T04:52:30.376Z,10.02
2023-01-05T04:54:58.185Z,9.99
2023-01-05T04:57:26.022Z,10.01
2023-01-05T04:59:55.334Z,9.99
2023-01-05T05:02:23.555Z,10.14
2023-01-05T05:04:51.498Z,10.18
2023-01-05T05:07:19.667Z,10.23
2023-01-05T05:09:47.460Z,10.25
2023-01-05T05:12:15.570Z,10.13
2023-01-05T05:14:43.580Z,10.07
2023-01-05T05:17:12.752Z,9.98
2023-01-05T05:19:40.745Z,9.93
2023-01-05T05:22:08.709Z,9.99
2023-01-05T05:24:36.668Z,10.00
2023-01-05T05:27:04.540Z,10.01
2023-01-05T05:29:32.529Z,10.13
2023-01-05T05:32:00.405Z,10.12
2023-01-05T05:34:29.627Z,10.07
2023-01-05T05:36:57.469Z,10.02
2023-01-05T05:39:25.308Z,10.05
2023-01-05T05:41:53.190Z,10.03
2023-01-05T05:44:21.179Z,10.13
2023-01-05T05:46:49.055Z,10.13
2023-01-05T05:49:16.945Z,10.13
2023-01-05T05:51:46.209Z,10.06
2023-01-05T05:54:14.053Z,10.13
2023-01-05T05:56:41.890Z,10.13
2023-01-05T05:59:09.881Z,10.08
2023-01-05T06:01:37.809Z,10.11
2023-01-05T06:04:06.057Z,10.16
2023-01-05T06:06:33.987Z,10.24
2023-01-05T06:09:03.199Z,10.27
2023-01-05T06:11:31.078Z,10.25
2023-01-05T06:13:59.277Z,10.28
2023-01-05T06:16:27.130Z,10.30
2023-01-05T06:18:55.023Z,10.21
2023-01-05T06:21:22.929Z,10.12
2023-01-05T06:23:50.773Z,10.17
2023-01-05T06:26:20.017Z,10.17
2023-01-05T06:28:47.954Z,10.20
2023-01-05T06:31:15.842Z,10.14
2023-01-05T06:33:43.746Z,10.26
2023-01-05T06:36:12.024Z,10.25
2023-01-05T06:38:39.933Z,10.28
2023-01-05T06:41:07.802Z,10.23
2023-01-05T06:43:37.182Z,10.20
2023-01-05T06:46:05.195Z,10.19
2023-01-05T06:48:33.142Z,10.15
2023-01-05T06:51:01.128Z,10.17
2023-01-05T06:53:29.088Z,10.26
2023-01-05T06:55:56.895Z,10.20
2023-01-05T06:58:24.756Z,10.16
2023-01-05T07:00:55.042Z,10.22
2023-01-05T07:03:23.788Z,10.17
2023-01-05T07:05:52.729Z,10.20
2023-01-05T07:08:20.685Z,10.25
2023-01-05T07:10:48.547Z,10.24
2023-01-05T07:13:16.529Z,10.32
2023-01-05T07:15:44.385Z,10.25
2023-01-05T07:18:13.603Z,10.32
2023-01-05T07:20:41.474Z,10.08
2023-01-05T07:23:09.383Z,10.29
2023-01-05T07:25:37.410Z,10.32
2023-01-05T07:28:05.688Z,10.35
2023-01-05T07:30:33.589Z,10.31
2023-01-05T07:33:02.006Z,10.19
2023-01-05T07:35:31.326Z,10.25
2023-01-05T07:37:59.405Z,10.30
2023-01-05T07:40:28.454Z,10.34
2023-01-05T07:42:56.317Z,10.36
2023-01-05T07:45:24.289Z,10.37
2023-01-05T07:47:52.215Z,10.37
2023-01-05T07:50:20.222Z,10.42
2023-01-05T07:52:49.408Z,10.43
2023-01-05T07:55:17.428Z,10.41
2023-01-05T07:57:47.026Z,10.35
2023-01-05T08:00:15.571Z,10.39
2023-01-05T08:02:43.917Z,10.38
2023-01-05T08:05:11.856Z,10.29
2023-01-05T08:07:39.675Z,10.33
2023-01-05T08:10:28.644Z,10.35
2023-01-05T08:13:14.080Z,10.31
2023-01-05T08:15:46.135Z,10.16
2023-01-05T08:18:18.694Z,10.18
2023-01-05T08:20:51.493Z,10.28
2023-01-05T08:23:26.028Z,10.27
2023-01-05T08:25:56.553Z,10.25
2023-01-05T08:28:29.888Z,10.29
2023-01-05T08:31:03.215Z,10.29
2023-01-05T08:33:31.281Z,10.23
2023-01-05T08:35:59.186Z,10.38
2023-01-05T08:38:27.736Z,10.21
2023-01-05T08:40:59.701Z,10.11
2023-01-05T08:43:27.793Z,10.03
2023-01-05T08:45:55.736Z,9.91
2023-01-05T08:48:24.041Z,9.89
2023-01-05T08:50:52.112Z,9.94
2023-01-05T08:53:19.960Z,9.88
2023-01-05T08:55:47.789Z,9.87
2023-01-05T08:58:17.970Z,9.87
2023-01-05T09:00:45.936Z,9.74
2023-01-05T09:03:13.958Z,9.79
2023-01-05T09:05:43.293Z,9.74
2023-01-05T09:08:11.202Z,9.77
2023-01-05T09:10:39.180Z,9.87
2023-01-05T09:13:07.346Z,9.84
2023-01-05T09:15:37.649Z,9.80
2023-01-05T09:18:05.507Z,9.82
2023-01-05T09:20:39.529Z,9.99
2023-01-05T09:23:07.950Z,10.01
2023-01-05T09:25:35.903Z,10.08
2023-01-05T09:28:03.766Z,9.99
2023-01-05T09:30:40.091Z,10.03
2023-01-05T09:33:11.319Z,9.96
2023-01-05T09:35:39.176Z,10.00
2023-01-05T09:38:07.075Z,9.87
2023-01-05T09:40:41.819Z,9.76
2023-01-05T09:43:15.458Z,9.71
2023-01-05T09:45:43.623Z,9.78
2023-01-05T09:48:16.124Z,9.96
2023-01-05T09:50:44.800Z,9.98
2023-01-05T09:53:14.774Z,9.91
2023-01-05T09:55:45.076Z,9.89
2023-01-05T09:58:17.213Z,9.91
2023-01-05T10:00:50.975Z,9.93
2023-01-05T10:04:01.774Z,10.01
2023-01-05T10:06:15.997Z,10.05
2023-01-05T10:08:46.179Z,10.11
2023-01-05T10:11:35.701Z,10.07
2023-01-05T10:14:10.088Z,10.23
2023-01-05T10:16:38.846Z,10.19
2023-01-05T10:19:14.570Z,10.24
2023-01-05T10:21:55.448Z,10.23
2023-01-05T10:24:35.229Z,10.17
2023-01-05T10:27:26.429Z,10.12
2023-01-05T10:30:00.716Z,10.15
2023-01-05T10:32:49.791Z,10.16
2023-01-05T10:35:59.628Z,10.03
2023-01-05T10:38:35.575Z,10.13
2023-01-05T10:41:15.083Z,10.03
2023-01-05T10:43:57.927Z,10.15
2023-01-05T10:46:35.090Z,10.22
2023-01-05T10:49:09.664Z,10.26
2023-01-05T10:51:39.359Z,10.18
2023-01-05T10:54:08.031Z,10.21
2023-01-05T10:56:35.867Z,10.23
2023-01-05T10:59:11.580Z,9.98
2023-01-05T11:01:44.193Z,9.84
2023-01-05T11:04:33.692Z,9.71
2023-01-05T11:07:06.852Z,9.73
2023-01-05T11:09:41.360Z,9.66
2023-01-05T11:12:19.586Z,9.74
2023-01-05T11:14:58.103Z,9.66
2023-01-05T11:17:29.373Z,9.79
2023-01-05T11:19:59.302Z,9.83
2023-01-05T11:22:35.635Z,9.84
2023-01-05T11:25:24.777Z,9.62
2023-01-05T11:28:12.820Z,9.59
2023-01-05T11:30:50.632Z,9.55
2023-01-05T11:33:26.069Z,9.51
2023-01-05T11:35:54.617Z,9.47
2023-01-05T11:38:26.485Z,9.52
2023-01-05T11:40:56.379Z,9.58
2023-01-05T11:43:25.917Z,9.73
2023-01-05T11:45:56.974Z,9.88
2023-01-05T11:48:28.594Z,10.02
2023-01-05T11:50:58.614Z,10.06
2023-01-05T11:53:37.896Z,10.03
2023-01-05T11:56:15.422Z,10.02
2023-01-05T11:58:44.558Z,10.05
2023-01-05T12:01:46.814Z,10.08
2023-01-05T12:04:30.234Z,10.27
2023-01-05T12:07:09.593Z,10.45
2023-01-05T12:09:43.209Z,10.45
2023-01-05T12:12:34.326Z,10.44
2023-01-05T12:15:19.135Z,10.69
2023-01-05T12:17:58.348Z,10.47
2023-01-05T12:20:52.055Z,10.47
2023-01-05T12:23:47.435Z,10.58
2023-01-05T12:26:27.240Z,10.62
2023-01-05T12:35:34.852Z,10.53
2023-01-05T12:38:16.957Z,10.46
2023-01-05T12:41:02.726Z,10.50
2023-01-05T12:43:48.203Z,10.60
2023-01-05T12:46:31.288Z,10.60
2023-01-05T12:49:03.031Z,10.50
2023-01-05T12:51:36.218Z,10.46
2023-01-05T12:54:08.522Z,10.53
2023-01-05T12:56:41.490Z,10.45
2023-01-05T12:59:22.803Z,10.44
2023-01-05T13:01:57.668Z,10.37
2023-01-05T13:04:46.776Z,10.39
2023-01-05T13:07:22.287Z,10.34
2023-01-05T13:10:02.966Z,10.27
2023-01-05T13:12:33.219Z,10.28
2023-01-05T13:15:15.055Z,10.38
2023-01-05T13:17:48.702Z,10.45
2023-01-05T13:20:35.940Z,10.46
2023-01-05T13:23:07.381Z,10.47
2023-01-05T13:25:43.762Z,10.32
2023-01-05T13:28:20.903Z,10.35
2023-01-05T13:31:08.627Z,10.37
2023-01-05T13:33:55.229Z,10.37
2023-01-05T13:36:34.525Z,10.30
2023-01-05T13:39:35.052Z,10.19
2023-01-05T13:42:34.109Z,10.33
2023-01-05T13:45:24.989Z,10.49
2023-01-05T13:48:13.133Z,10.59
2023-01-05T13:51:07.017Z,10.64
2023-01-05T13:53:39.022Z,10.63
2023-01-05T13:56:14.667Z,10.67
2023-01-05T13:58:45.777Z,10.79
2023-01-05T14:01:17.329Z,10.79
2023-01-05T14:03:52.795Z,10.83
2023-01-05T14:06:25.423Z,10.70
2023-01-05T14:08:57.994Z,10.67
2023-01-05T14:11:27.523Z,10.69
2023-01-05T14:13:58.502Z,10.67
2023-01-05T14:16:55.700Z,10.66
2023-01-05T14:19:43.779Z,10.67
2023-01-05T14:22:37.060Z,10.62
2023-01-05T14:25:53.998Z,10.72
2023-01-05T14:28:46.236Z,10.57
2023-01-05T14:31:52.904Z,10.55
2023-01-05T14:34:22.842Z,10.32
2023-01-05T14:37:03.445Z,10.34
2023-01-05T14:39:40.814Z,10.40
2023-01-05T14:42:18.699Z,10.36
2023-01-05T14:44:51.270Z,10.33
2023-01-05T14:47:34.960Z,10.31
2023-01-05T14:50:05.057Z,10.20
2023-01-05T14:53:02.675Z,10.27
2023-01-05T14:55:39.345Z,10.23
2023-01-05T14:58:13.433Z,10.28
2023-01-05T15:00:50.519Z,10.22
2023-01-05T15:03:28.342Z,10.21
2023-01-05T15:06:01.711Z,10.10
2023-01-05T15:09:05.176Z,10.05
2023-01-05T15:11:45.404Z,9.99
2023-01-05T15:14:48.890Z,9.91
2023-01-05T15:17:53.759Z,9.89
2023-01-05T15:21:02.476Z,9.95
2023-01-05T15:23:54.463Z,10.02
2023-01-05T15:26:45.327Z,10.09
2023-01-05T15:29:51.336Z,10.12
2023-01-05T15:32:22.732Z,10.16
2023-01-05T15:34:55.968Z,10.24
2023-01-05T15:37:30.552Z,10.25
2023-01-05T15:40:04.000Z,10.33
2023-01-05T15:42:39.777Z,10.36
2023-01-05T15:45:16.051Z,10.33
2023-01-05T15:47:44.344Z,10.25
2023-01-05T15:50:20.091Z,10.29
2023-01-05T15:52:55.252Z,10.22
2023-01-05T15:55:25.893Z,10.24
2023-01-05T15:57:56.011Z,10.24
2023-01-05T16:00:26.860Z,10.23
2023-01-05T16:02:55.187Z,10.31
2023-01-05T16:05:25.773Z,10.36
2023-01-05T16:07:57.831Z,10.36
2023-01-05T16:10:30.910Z,10.34
2023-01-05T16:13:06.156Z,10.34
2023-01-05T16:15:36.351Z,10.34
2023-01-05T16:18:07.458Z,10.32
2023-01-05T16:20:38.237Z,10.34
2023-01-05T16:23:16.588Z,10.32
2023-01-05T16:25:54.347Z,10.37
2023-01-05T16:28:24.116Z,10.33
2023-01-05T16:30:53.781Z,10.34
2023-01-05T16:33:34.764Z,10.37
2023-01-05T16:36:18.842Z,10.41
2023-01-05T16:38:46.983Z,10.36
2023-01-05T16:41:22.512Z,10.44
2023-01-05T16:43:56.157Z,10.47
2023-01-05T16:46:39.686Z,10.50
2023-01-05T16:49:27.308Z,10.52
2023-01-05T16:51:56.866Z,10.46
2023-01-05T16:54:35.096Z,10.38
2023-01-05T16:57:06.083Z,10.38
2023-01-05T16:59:46.509Z,10.37
2023-01-05T17:02:44.615Z,10.30
2023-01-05T17:05:14.776Z,10.25
2023-01-05T17:07:45.077Z,10.29
2023-01-05T17:10:21.591Z,10.31
2023-01-05T17:12:57.561Z,10.36
2023-01-05T17:15:29.552Z,10.43
2023-01-05T17:17:58.123Z,10.48
2023-01-05T17:20:30.586Z,10.52
2023-01-05T17:22:58.481Z,10.54
2023-01-05T17:25:34.431Z,10.58
2023-01-05T17:28:03.663Z,10.59
2023-01-05T17:30:31.557Z,10.61
2023-01-05T17:32:59.529Z,10.59
2023-01-05T17:35:27.422Z,10.58
2023-01-05T17:37:55.210Z,10.54
2023-01-05T17:40:23.389Z,10.56
2023-01-05T17:42:51.339Z,10.58
2023-01-05T17:45:23.243Z,10.53
2023-01-05T17:47:52.262Z,10.54
2023-01-05T17:50:22.503Z,10.50
2023-01-05T17:52:50.383Z,10.54
2023-01-05T17:55:18.455Z,10.52
2023-01-05T17:57:46.316Z,10.38
2023-01-05T18:00:18.120Z,10.41
2023-01-05T18:02:49.829Z,10.42
2023-01-05T18:05:18.247Z,10.42
2023-01-05T18:07:46.224Z,10.37
2023-01-05T18:10:16.371Z,10.29
2023-01-05T18:12:44.236Z,10.24
2023-01-05T18:15:13.212Z,10.23
2023-01-05T18:17:42.388Z,10.27
2023-01-05T18:20:16.866Z,10.24
2023-01-05T18:22:46.674Z,10.17
2023-01-05T18:25:14.516Z,10.12
2023-01-05T18:27:42.335Z,10.14
2023-01-05T18:30:11.598Z,10.10
2023-01-05T18:32:40.298Z,10.09
2023-01-05T18:35:10.382Z,10.04
2023-01-05T18:37:40.918Z,10.00
2023-01-05T18:40:10.738Z,9.96
2023-01-05T18:42:39.205Z,9.98
2023-01-05T18:45:18.957Z,9.98
2023-01-05T18:47:56.992Z,9.94
2023-01-05T18:50:25.162Z,10.00
2023-01-05T18:52:54.455Z,10.03
2023-01-05T18:55:22.340Z,9.89
2023-01-05T18:57:50.280Z,9.82
2023-01-05T19:00:18.535Z,9.87
2023-01-05T19:02:46.381Z,9.86
2023-01-05T19:05:14.385Z,9.80
2023-01-05T19:07:42.280Z,9.74
2023-01-05T19:10:11.904Z,9.69
2023-01-05T19:12:39.913Z,9.65
2023-01-05T19:15:08.639Z,9.60
2023-01-05T19:17:36.508Z,9.57
2023-01-05T19:20:04.722Z,9.51
2023-01-05T19:22:34.503Z,9.43
2023-01-05T19:25:02.509Z,9.38
2023-01-05T19:27:31.753Z,9.35
2023-01-05T19:29:59.592Z,9.29
2023-01-05T19:32:27.383Z,9.27
2023-01-05T19:34:55.325Z,9.24
2023-01-05T19:37:23.130Z,9.27
2023-01-05T19:39:50.984Z,9.32
2023-01-05T19:42:18.942Z,9.39
2023-01-05T19:44:48.809Z,9.48
2023-01-05T19:47:16.642Z,9.51
2023-01-05T19:49:44.508Z,9.52
2023-01-05T19:52:13.809Z,9.57
2023-01-05T19:54:42.715Z,9.58
2023-01-05T19:57:13.076Z,9.63
2023-01-05T19:59:41.461Z,9.68
2023-01-05T20:02:11.573Z,9.73
2023-01-05T20:04:39.509Z,9.75
2023-01-05T20:07:10.739Z,9.71
2023-01-05T20:09:39.405Z,9.71
2023-01-05T20:12:14.853Z,9.75
2023-01-05T20:14:46.376Z,9.72
2023-01-05T20:17:16.203Z,9.67
2023-01-05T20:19:44.274Z,9.66
2023-01-05T20:22:14.875Z,9.69
2023-01-05T20:24:43.802Z,9.71
2023-01-05T20:27:13.650Z,9.64
2023-01-05T20:29:42.001Z,9.67
2023-01-05T20:32:16.507Z,9.66
2023-01-05T20:34:54.193Z,9.68
2023-01-05T20:37:23.664Z,9.61
2023-01-05T20:39:53.025Z,9.62
2023-01-05T20:42:20.832Z,9.66
2023-01-05T20:44:49.886Z,9.65
2023-01-05T20:47:18.266Z,9.65
2023-01-05T20:49:48.118Z,9.70
2023-01-05T20:52:18.768Z,9.71
2023-01-05T20:54:47.106Z,9.73
2023-01-05T20:57:14.951Z,9.71
2023-01-05T20:59:43.476Z,9.69
2023-01-05T21:02:23.109Z,9.60
2023-01-05T21:04:54.173Z,9.64
2023-01-05T21:07:22.690Z,9.57
2023-01-05T21:09:51.699Z,9.59
2023-01-05T21:12:20.277Z,9.54
2023-01-05T21:14:48.198Z,9.45
2023-01-05T21:17:16.828Z,9.48
2023-01-05T21:19:44.855Z,9.42
2023-01-05T21:22:15.537Z,9.45
2023-01-05T21:24:45.368Z,9.44
2023-01-05T21:27:13.287Z,9.36
2023-01-05T21:29:41.134Z,9.43
2023-01-05T21:32:09.272Z,9.47
2023-01-05T21:34:37.460Z,9.49
2023-01-05T21:37:05.367Z,9.51
2023-01-05T21:39:34.924Z,9.55
2023-01-05T21:42:20.200Z,9.53
2023-01-05T21:44:48.700Z,9.47
2023-01-05T21:47:16.771Z,9.47
2023-01-05T21:49:44.648Z,9.43
2023-01-05T21:52:29.895Z,9.43
2023-01-05T21:55:16.939Z,9.43
2023-01-05T21:57:44.884Z,9.37
2023-01-05T22:00:13.926Z,9.35
2023-01-05T22:02:42.220Z,9.35
2023-01-05T22:05:10.634Z,9.38
2023-01-05T22:07:38.534Z,9.41
2023-01-05T22:10:11.387Z,9.40
2023-01-05T22:12:39.785Z,9.42
2023-01-05T22:15:08.408Z,9.40
2023-01-05T22:17:36.560Z,9.41
2023-01-05T22:20:04.819Z,9.44
2023-01-05T22:22:32.636Z,9.45
2023-01-05T22:25:00.483Z,9.34
2023-01-05T22:27:30.480Z,9.40
2023-01-05T22:29:58.268Z,9.38
2023-01-05T22:32:26.246Z,9.29
2023-01-05T22:34:56.204Z,9.22
2023-01-05T22:37:24.201Z,9.28
2023-01-05T22:39:52.075Z,9.35
2023-01-05T22:42:20.148Z,9.30
2023-01-05T22:44:49.457Z,9.29
2023-01-05T22:47:17.512Z,9.26
2023-01-05T22:49:45.663Z,9.32
2023-01-05T22:52:13.693Z,9.35
2023-01-05T22:54:41.902Z,9.29
2023-01-05T22:57:10.009Z,9.33
2023-01-05T22:59:38.002Z,9.30
2023-01-05T23:02:07.385Z,9.30
2023-01-05T23:04:35.564Z,9.29
2023-01-05T23:07:03.345Z,9.31
2023-01-05T23:09:31.311Z,9.35
2023-01-05T23:11:59.839Z,9.35
2023-01-05T23:14:30.794Z,9.31
2023-01-05T23:16:59.110Z,9.23
2023-01-05T23:19:28.314Z,9.26
2023-01-05T23:21:56.802Z,9.21
2023-01-05T23:24:24.862Z,9.22
2023-01-05T23:26:52.641Z,9.25
2023-01-05T23:29:20.483Z,9.22
2023-01-05T23:31:51.208Z,9.18
2023-01-05T23:34:19.172Z,9.23
2023-01-05T23:36:48.402Z,9.26
2023-01-05T23:39:16.305Z,9.25
2023-01-05T23:41:44.432Z,9.18
2023-01-05T23:44:14.045Z,9.15
2023-01-05T23:46:42.223Z,9.24
2023-01-05T23:49:10.087Z,9.21
2023-01-05T23:51:37.861Z,9.14
2023-01-05T23:54:07.282Z,9.17
2023-01-05T23:56:35.106Z,9.24
2023-01-05T23:59:05.802Z,9.34
